Flight Track Log - Related Links

Times and Time Zones

All times are in EDT time to prevent confusion due to time zone crossing. See the N900GT flight status page for this flight to view local times or setup timezone preferences in your user account.

Time Position Orientation Groundspeed Altitude Reporting Facility
EDT Latitude Longitude Course Direction KTS MPH feet Rate Location/Type
Tue 04:36:25 PM 29.6411 -95.2836 158° South 111 128 400  Level Houston Center
Tue 04:37:32 PM 29.6169 -95.2722 158° South 168 193 1,600 1,231 Climbing Houston Center
Tue 04:38:22 PM 29.6581 -95.2692 North 197 227 2,800 1,500 Climbing Houston Center
Tue 04:39:24 PM 29.7133 -95.2736 356° North 198 228 4,400 1,694 Climbing Houston Center
Tue 04:40:26 PM 29.7647 -95.2694 North 187 215 6,300 1,759 Climbing Houston Center
Tue 04:41:37 PM 29.8283 -95.2633 North 186 214 8,300 1,440 Climbing Houston Center
Tue 04:42:31 PM 29.8706 -95.2606 North 189 217 9,300 1,345 Climbing Houston Center
Tue 04:43:33 PM 29.9228 -95.2556 North 187 215 10,900 1,452 Climbing Houston Center
Tue 04:44:35 PM 29.9797 -95.2772 342° North 194 223 12,300 1,306 Climbing Houston Center
Tue 04:45:37 PM 30.0328 -95.3119 330° Northwest 200 230 13,600 1,161 Climbing Houston Center
Tue 04:46:39 PM 30.0811 -95.3444 330° Northwest 201 231 14,700 1,065 Climbing Houston Center
Tue 04:47:41 PM 30.1297 -95.3781 329° Northwest 203 234 15,800 1,065 Climbing Houston Center
Tue 04:48:43 PM 30.1789 -95.4103 330° Northwest 203 234 16,900 919 Climbing Houston Center
Tue 04:49:45 PM 30.2258 -95.4433 329° Northwest 200 230 17,700 624 Climbing Houston Center
Tue 04:50:48 PM 30.2850 -95.4828 330° Northwest 205 236 18,200 672 Climbing Houston Center
Tue 04:51:50 PM 30.3383 -95.5197 329° Northwest 221 254 19,100 919 Climbing Houston Center
Tue 04:52:52 PM 30.3875 -95.5531 330° Northwest 209 241 20,100 968 Climbing Houston Center
Tue 04:53:54 PM 30.4342 -95.5833 331° Northwest 195 224 21,100 919 Climbing Houston Center
Tue 04:54:56 PM 30.4772 -95.6139 329° Northwest 184 212 22,000 774 Climbing Houston Center
Tue 04:55:58 PM 30.5208 -95.6425 331° Northwest 180 207 22,700 629 Climbing Houston Center
Tue 04:57:00 PM 30.5811 -95.6767 334° Northwest 201 231 23,300 528 Climbing Houston Center
Tue 04:58:03 PM 30.6358 -95.7058 335° Northwest 213 245 23,800 336 Climbing Houston Center
Tue 04:59:05 PM 30.6900 -95.7353 335° Northwest 223 257 24,000 97 Climbing Houston Center
Tue 05:00:07 PM 30.7522 -95.7683 335° Northwest 240 276 24,000  Level Houston Center
Tue 05:01:09 PM 30.8306 -95.8097 336° Northwest 253 291 24,000  Level Houston Center
Tue 05:02:11 PM 30.8950 -95.8439 336° Northwest 255 293 24,000  Level Houston Center
Tue 05:03:13 PM 30.9606 -95.8789 335° Northwest 257 296 24,000  Level Houston Center
Tue 05:04:15 PM 31.0253 -95.9139 335° Northwest 256 295 24,000  Level Houston Center
Tue 05:05:17 PM 31.0919 -95.9497 335° Northwest 260 299 24,000  Level Houston Center
Tue 05:06:19 PM 31.1583 -95.9806 338° Northwest 257 296 24,000  Level Houston Center
Tue 05:07:21 PM 31.2408 -96.0122 342° North 257 296 24,000  Level Houston Center
Tue 05:08:23 PM 31.3086 -96.0381 342° North 255 293 24,000  Level Houston Center
Tue 05:09:26 PM 31.3783 -96.0656 341° North 261 300 24,000  Level Houston Center
Tue 05:10:27 PM 31.4425 -96.0908 341° North 260 299 24,000  Level Houston Center
Tue 05:11:29 PM 31.5256 -96.1222 342° North 265 305 24,000  Level Houston Center
Tue 05:12:32 PM 31.5947 -96.1497 341° North 262 302 24,000  Level Houston Center
Tue 05:13:34 PM 31.6636 -96.1764 342° North 261 300 24,000  Level Houston Center
Tue 05:14:36 PM 31.7333 -96.2039 341° North 260 299 24,000  Level Houston Center
Tue 05:15:38 PM 31.8033 -96.2311 342° North 262 302 24,000  Level Houston Center
Tue 05:16:40 PM 31.8725 -96.2589 341° North 261 300 24,000  Level Houston Center
Tue 05:17:42 PM 31.9422 -96.2850 342° North 261 300 24,000  Level Houston Center
Tue 05:18:44 PM 32.0222 -96.3175 341° North 258 297 24,000  Level Houston Center
Tue 05:19:53 PM 32.1025 -96.3514 340° North 250 288 24,000  Level Fort Worth Center
Tue 05:20:53 PM 32.1694 -96.3803 340° North 250 288 24,000  Level Fort Worth Center
Tue 05:21:54 PM 32.2386 -96.4064 342° North 250 288 24,000  Level Fort Worth Center
Tue 05:22:53 PM 32.3078 -96.4303 344° North 250 288 24,000  Level Fort Worth Center
Tue 05:23:54 PM 32.3767 -96.4564 342° North 250 288 24,000  Level Fort Worth Center
Tue 05:24:54 PM 32.4481 -96.4828 343° North 250 288 24,000  Level Fort Worth Center
Tue 05:25:53 PM 32.5150 -96.5092 342° North 250 288 24,000  Level Fort Worth Center
Tue 05:26:53 PM 32.5839 -96.5356 342° North 250 288 24,000  Level Fort Worth Center
Tue 05:27:54 PM 32.6508 -96.5597 343° North 250 288 24,000  Level Fort Worth Center
Tue 05:28:53 PM 32.7222 -96.5886 341° North 250 288 24,000  Level Fort Worth Center
Tue 05:29:54 PM 32.7892 -96.6153 341° North 250 288 24,000  Level Fort Worth Center
Tue 05:30:54 PM 32.8581 -96.6394 344° North 250 288 24,000  Level Fort Worth Center
Tue 05:31:53 PM 32.9272 -96.6661 342° North 250 288 24,000  Level Fort Worth Center
Tue 05:32:53 PM 32.9942 -96.6903 343° North 250 288 24,000  Level Fort Worth Center
Tue 05:33:54 PM 33.0653 -96.7194 341° North 250 288 24,000  Level Fort Worth Center
Tue 05:34:53 PM 33.1322 -96.7461 342° North 250 288 24,000  Level Fort Worth Center
Tue 05:35:53 PM 33.2033 -96.7703 344° North 250 288 24,000  Level Fort Worth Center
Tue 05:36:54 PM 33.2703 -96.7997 340° North 250 288 24,000  Level Fort Worth Center
Tue 05:37:54 PM 33.3392 -96.8242 343° North 250 288 24,000  Level Fort Worth Center
Tue 05:38:53 PM 33.4061 -96.8511 341° North 250 288 24,000  Level Fort Worth Center
Tue 05:39:54 PM 33.4753 -96.8781 342° North 250 288 24,000  Level Fort Worth Center
Tue 05:40:53 PM 33.5419 -96.9025 343° North 250 288 24,000  Level Fort Worth Center
Tue 05:41:53 PM 33.6006 -96.9272 341° North 250 288 24,000  Level Fort Worth Center
Tue 05:42:54 PM 33.6694 -96.9542 342° North 250 288 24,000  Level Fort Worth Center
Tue 05:43:54 PM 33.7364 -96.9814 341° North 250 288 24,000  Level Fort Worth Center
Tue 05:44:54 PM 33.8033 -97.0086 341° North 250 288 24,000  Level Fort Worth Center
Tue 05:45:54 PM 33.8722 -97.0333 343° North 250 288 24,000  Level Fort Worth Center
Tue 05:46:53 PM 33.9392 -97.0556 345° North 250 288 24,000  Level Fort Worth Center
Tue 05:47:53 PM 34.0081 -97.0728 348° North 245 282 24,000  Level Fort Worth Center
Tue 05:48:54 PM 34.0769 -97.0950 345° North 240 276 24,000  Level Fort Worth Center
Tue 05:49:53 PM 34.1481 -97.1200 344° North 240 276 24,000  Level Fort Worth Center
Tue 05:50:54 PM 34.2147 -97.1422 345° North 240 276 24,000  Level Fort Worth Center
Tue 05:51:54 PM 34.2817 -97.1597 348° North 245 282 24,000  Level Fort Worth Center
Tue 05:52:53 PM 34.3506 -97.1794 347° North 245 282 24,000  Level Fort Worth Center
Tue 05:53:54 PM 34.4194 -97.1994 347° North 245 282 24,000  Level Fort Worth Center
Tue 05:54:54 PM 34.4883 -97.2194 347° North 245 282 24,000  Level Fort Worth Center
Tue 05:55:53 PM 34.5572 -97.2394 347° North 245 282 24,000 -150 Level Fort Worth Center
Tue 05:56:54 PM 34.6281 -97.2622 345° North 245 282 23,700 -595 Descending Fort Worth Center
Tue 05:57:54 PM 34.7011 -97.2822 347° North 255 293 22,800 -850 Descending Fort Worth Center
Tue 05:58:54 PM 34.7764 -97.3047 346° North 261 300 22,000 -403 Descending Fort Worth Center
Tue 05:59:53 PM 34.8472 -97.3275 345° North 266 306 22,000  Level Fort Worth Center
Tue 06:00:54 PM 34.9161 -97.3478 346° North 261 300 22,000  Level Fort Worth Center
Tue 06:01:54 PM 34.9869 -97.3678 347° North 261 300 22,000  Level Fort Worth Center
Tue 06:02:54 PM 35.0558 -97.3908 345° North 261 300 22,000  Level Fort Worth Center
Tue 06:04:38 PM 35.1686 -97.4214 348° North 253 291 22,000  Level Kansas City Center
Tue 06:05:40 PM 35.2383 -97.4419 346° North 255 293 22,000  Level Kansas City Center
Tue 06:06:42 PM 35.3086 -97.4636 346° North 257 296 22,000  Level Kansas City Center
Tue 06:07:44 PM 35.3794 -97.4858 346° North 257 296 22,000 -726 Level Kansas City Center
Tue 06:08:46 PM 35.4711 -97.5119 347° North 275 316 20,500 -1,065 Descending Kansas City Center
Tue 06:09:48 PM 35.5489 -97.5350 346° North 284 327 19,800 -677 Descending Kansas City Center
Tue 06:10:50 PM 35.6231 -97.5572 346° North 277 319 19,100 -871 Descending Kansas City Center
Tue 06:11:52 PM 35.6967 -97.5792 346° North 272 313 18,000 -1,161 Descending Kansas City Center
Tue 06:12:54 PM 35.7769 -97.6042 346° North 288 331 16,700 -1,306 Descending Kansas City Center
Tue 06:13:56 PM 35.8561 -97.6289 346° North 293 337 15,300 -1,403 Descending Kansas City Center
Tue 06:14:58 PM 35.9328 -97.6517 346° North 287 330 13,800 -1,935 Descending Kansas City Center
Tue 06:16:00 PM 36.0211 -97.6789 346° North 277 319 11,300 -2,274 Descending Kansas City Center
Tue 06:17:02 PM 36.0911 -97.7000 346° North 265 305 9,100 -2,269 Descending Kansas City Center
Tue 06:17:59 PM 36.1592 -97.7233 345° North 255 293 6,800 -1,780 Descending Kansas City Center
Tue 06:19:00 PM 36.2256 -97.7419 347° North 253 291 5,600 -1,228 Descending Kansas City Center
Tue 06:20:06 PM 36.3008 -97.7414 360° North 241 277 4,200 -992 Descending Kansas City Center
Tue 06:21:07 PM 36.3636 -97.7397 North 219 252 3,500 -689 Descending Kansas City Center

Login

Don't have an account? Register now (free) for customized features, flight alerts, and more!